sensor_id;sensor_type;location;lat;lon;timestamp;temperature;humidity
2407;DHT22;37709;53.480;9.688;2024-02-23T00:02:10;9.10;99.90
2407;DHT22;37709;53.480;9.688;2024-02-23T00:04:37;9.00;99.90
2407;DHT22;37709;53.480;9.688;2024-02-23T00:07:06;8.80;99.90
2407;DHT22;37709;53.480;9.688;2024-02-23T00:09:33;9.00;99.90
2407;DHT22;37709;53.480;9.688;2024-02-23T00:12:01;9.20;99.90
2407;DHT22;37709;53.480;9.688;2024-02-23T00:14:30;9.10;99.90
2407;DHT22;37709;53.480;9.688;2024-02-23T00:16:58;9.00;99.90
2407;DHT22;37709;53.480;9.688;2024-02-23T00:19:26;9.00;99.90
2407;DHT22;37709;53.480;9.688;2024-02-23T00:21:53;9.00;99.90
2407;DHT22;37709;53.480;9.688;2024-02-23T00:24:20;9.10;99.90
2407;DHT22;37709;53.480;9.688;2024-02-23T00:26:48;9.10;99.90
2407;DHT22;37709;53.480;9.688;2024-02-23T00:29:16;9.10;99.90
2407;DHT22;37709;53.480;9.688;2024-02-23T00:31:44;9.20;99.90
2407;DHT22;37709;53.480;9.688;2024-02-23T00:34:14;9.10;99.90
2407;DHT22;37709;53.480;9.688;2024-02-23T00:36:42;8.70;99.90
2407;DHT22;37709;53.480;9.688;2024-02-23T00:39:12;7.80;99.90
2407;DHT22;37709;53.480;9.688;2024-02-23T00:41:39;7.00;99.90
2407;DHT22;37709;53.480;9.688;2024-02-23T00:44:07;6.50;99.90
2407;DHT22;37709;53.480;9.688;2024-02-23T00:46:34;6.10;99.90
2407;DHT22;37709;53.480;9.688;2024-02-23T00:49:02;6.00;99.90
2407;DHT22;37709;53.480;9.688;2024-02-23T00:51:30;5.90;99.90
2407;DHT22;37709;53.480;9.688;2024-02-23T00:53:57;5.90;99.90
2407;DHT22;37709;53.480;9.688;2024-02-23T00:56:25;5.90;99.90
2407;DHT22;37709;53.480;9.688;2024-02-23T00:59:02;6.00;99.90
2407;DHT22;37709;53.480;9.688;2024-02-23T01:01:29;6.00;99.90
2407;DHT22;37709;53.480;9.688;2024-02-23T01:03:57;6.00;99.90
2407;DHT22;37709;53.480;9.688;2024-02-23T01:06:25;6.00;99.90
2407;DHT22;37709;53.480;9.688;2024-02-23T01:08:52;5.90;99.90
2407;DHT22;37709;53.480;9.688;2024-02-23T01:11:19;5.80;99.90
2407;DHT22;37709;53.480;9.688;2024-02-23T01:13:47;5.80;99.90
2407;DHT22;37709;53.480;9.688;2024-02-23T01:16:15;5.60;99.90
2407;DHT22;37709;53.480;9.688;2024-02-23T01:18:43;5.60;99.90
2407;DHT22;37709;53.480;9.688;2024-02-23T01:21:12;5.50;99.90
2407;DHT22;37709;53.480;9.688;2024-02-23T01:23:40;5.50;99.90
2407;DHT22;37709;53.480;9.688;2024-02-23T01:26:08;5.60;99.90
2407;DHT22;37709;53.480;9.688;2024-02-23T01:28:35;5.60;99.90
2407;DHT22;37709;53.480;9.688;2024-02-23T01:31:03;5.70;99.90
2407;DHT22;37709;53.480;9.688;2024-02-23T01:33:31;5.70;99.90
2407;DHT22;37709;53.480;9.688;2024-02-23T01:35:58;5.80;99.90
2407;DHT22;37709;53.480;9.688;2024-02-23T01:38:26;5.80;99.90
2407;DHT22;37709;53.480;9.688;2024-02-23T01:41:01;5.80;99.90
2407;DHT22;37709;53.480;9.688;2024-02-23T01:43:29;5.90;99.90
2407;DHT22;37709;53.480;9.688;2024-02-23T01:45:56;5.90;99.90
2407;DHT22;37709;53.480;9.688;2024-02-23T01:48:23;5.90;99.90
2407;DHT22;37709;53.480;9.688;2024-02-23T01:50:51;5.70;99.90
2407;DHT22;37709;53.480;9.688;2024-02-23T01:53:18;5.60;99.90
2407;DHT22;37709;53.480;9.688;2024-02-23T01:55:47;5.60;99.90
2407;DHT22;37709;53.480;9.688;2024-02-23T01:58:15;5.50;99.90
2407;DHT22;37709;53.480;9.688;2024-02-23T02:00:42;5.50;99.90
2407;DHT22;37709;53.480;9.688;2024-02-23T02:03:10;5.50;99.90
2407;DHT22;37709;53.480;9.688;2024-02-23T02:05:39;5.40;99.90
2407;DHT22;37709;53.480;9.688;2024-02-23T02:08:07;5.40;99.90
2407;DHT22;37709;53.480;9.688;2024-02-23T02:10:35;5.40;99.90
2407;DHT22;37709;53.480;9.688;2024-02-23T02:13:03;5.40;99.90
2407;DHT22;37709;53.480;9.688;2024-02-23T02:15:31;5.40;99.90
2407;DHT22;37709;53.480;9.688;2024-02-23T02:17:59;5.30;99.90
2407;DHT22;37709;53.480;9.688;2024-02-23T02:20:28;5.20;99.90
2407;DHT22;37709;53.480;9.688;2024-02-23T02:22:59;5.20;99.90
2407;DHT22;37709;53.480;9.688;2024-02-23T02:25:26;5.20;99.90
2407;DHT22;37709;53.480;9.688;2024-02-23T02:27:53;5.20;99.90
2407;DHT22;37709;53.480;9.688;2024-02-23T02:30:21;5.20;99.90
2407;DHT22;37709;53.480;9.688;2024-02-23T02:32:48;5.20;99.90
2407;DHT22;37709;53.480;9.688;2024-02-23T02:35:16;5.10;99.90
2407;DHT22;37709;53.480;9.688;2024-02-23T02:37:44;5.10;99.90
2407;DHT22;37709;53.480;9.688;2024-02-23T02:40:12;5.00;99.90
2407;DHT22;37709;53.480;9.688;2024-02-23T02:42:39;4.90;99.90
2407;DHT22;37709;53.480;9.688;2024-02-23T02:45:07;4.90;99.90
2407;DHT22;37709;53.480;9.688;2024-02-23T02:47:34;4.90;99.90
2407;DHT22;37709;53.480;9.688;2024-02-23T02:50:04;4.80;99.90
2407;DHT22;37709;53.480;9.688;2024-02-23T02:52:33;4.70;99.90
2407;DHT22;37709;53.480;9.688;2024-02-23T02:55:01;4.70;99.90
2407;DHT22;37709;53.480;9.688;2024-02-23T02:57:29;4.60;99.90
2407;DHT22;37709;53.480;9.688;2024-02-23T02:59:57;4.60;99.90
2407;DHT22;37709;53.480;9.688;2024-02-23T03:02:25;4.70;99.90
2407;DHT22;37709;53.480;9.688;2024-02-23T03:04:53;4.70;99.90
2407;DHT22;37709;53.480;9.688;2024-02-23T03:07:22;4.70;99.90
2407;DHT22;37709;53.480;9.688;2024-02-23T03:09:49;4.70;99.90
2407;DHT22;37709;53.480;9.688;2024-02-23T03:12:18;4.70;99.90
2407;DHT22;37709;53.480;9.688;2024-02-23T03:14:47;4.80;99.90
2407;DHT22;37709;53.480;9.688;2024-02-23T03:17:15;4.70;99.90
2407;DHT22;37709;53.480;9.688;2024-02-23T03:19:43;4.70;99.90
2407;DHT22;37709;53.480;9.688;2024-02-23T03:22:10;4.70;99.90
2407;DHT22;37709;53.480;9.688;2024-02-23T03:24:39;4.70;99.90
2407;DHT22;37709;53.480;9.688;2024-02-23T03:27:07;4.70;99.90
2407;DHT22;37709;53.480;9.688;2024-02-23T03:29:35;4.60;99.90
2407;DHT22;37709;53.480;9.688;2024-02-23T03:32:03;4.30;99.90
2407;DHT22;37709;53.480;9.688;2024-02-23T03:34:32;4.20;99.90
2407;DHT22;37709;53.480;9.688;2024-02-23T03:36:59;4.20;99.90
2407;DHT22;37709;53.480;9.688;2024-02-23T03:39:29;4.10;99.90
2407;DHT22;37709;53.480;9.688;2024-02-23T03:41:56;4.00;99.90
2407;DHT22;37709;53.480;9.688;2024-02-23T03:44:24;3.90;99.90
2407;DHT22;37709;53.480;9.688;2024-02-23T03:46:53;3.90;99.90
2407;DHT22;37709;53.480;9.688;2024-02-23T03:49:20;3.90;99.90
2407;DHT22;37709;53.480;9.688;2024-02-23T03:51:48;3.80;99.90
2407;DHT22;37709;53.480;9.688;2024-02-23T03:54:15;3.80;99.90
2407;DHT22;37709;53.480;9.688;2024-02-23T03:56:43;3.90;99.90
2407;DHT22;37709;53.480;9.688;2024-02-23T03:59:11;3.80;99.90
2407;DHT22;37709;53.480;9.688;2024-02-23T04:01:38;3.90;99.90
2407;DHT22;37709;53.480;9.688;2024-02-23T04:04:09;3.90;99.90
2407;DHT22;37709;53.480;9.688;2024-02-23T04:06:36;4.00;99.90
2407;DHT22;37709;53.480;9.688;2024-02-23T04:09:04;4.10;99.90
2407;DHT22;37709;53.480;9.688;2024-02-23T04:11:32;4.20;99.90
2407;DHT22;37709;53.480;9.688;2024-02-23T04:14:01;4.30;99.90
2407;DHT22;37709;53.480;9.688;2024-02-23T04:16:28;4.40;99.90
2407;DHT22;37709;53.480;9.688;2024-02-23T04:18:55;4.60;99.90
2407;DHT22;37709;53.480;9.688;2024-02-23T04:21:25;4.60;99.90
2407;DHT22;37709;53.480;9.688;2024-02-23T04:23:52;4.70;99.90
2407;DHT22;37709;53.480;9.688;2024-02-23T04:26:20;4.80;99.90
2407;DHT22;37709;53.480;9.688;2024-02-23T04:28:47;4.80;99.90
2407;DHT22;37709;53.480;9.688;2024-02-23T04:31:18;4.80;99.90
2407;DHT22;37709;53.480;9.688;2024-02-23T04:33:45;4.80;99.90
2407;DHT22;37709;53.480;9.688;2024-02-23T04:36:13;4.90;99.90
2407;DHT22;37709;53.480;9.688;2024-02-23T04:38:41;4.90;99.90
2407;DHT22;37709;53.480;9.688;2024-02-23T04:41:09;5.10;99.90
2407;DHT22;37709;53.480;9.688;2024-02-23T04:43:36;5.00;99.90
2407;DHT22;37709;53.480;9.688;2024-02-23T04:46:04;5.00;99.90
2407;DHT22;37709;53.480;9.688;2024-02-23T04:48:31;4.90;99.90
2407;DHT22;37709;53.480;9.688;2024-02-23T04:50:59;4.90;99.90
2407;DHT22;37709;53.480;9.688;2024-02-23T04:53:27;4.70;99.90
2407;DHT22;37709;53.480;9.688;2024-02-23T04:56:00;4.80;99.90
2407;DHT22;37709;53.480;9.688;2024-02-23T04:58:28;4.70;99.90
2407;DHT22;37709;53.480;9.688;2024-02-23T05:00:56;4.60;99.90
2407;DHT22;37709;53.480;9.688;2024-02-23T05:03:24;4.50;99.90
2407;DHT22;37709;53.480;9.688;2024-02-23T05:05:51;4.60;99.90
2407;DHT22;37709;53.480;9.688;2024-02-23T05:08:21;4.50;99.90
2407;DHT22;37709;53.480;9.688;2024-02-23T05:10:51;4.40;99.90
2407;DHT22;37709;53.480;9.688;2024-02-23T05:13:19;4.40;99.90
2407;DHT22;37709;53.480;9.688;2024-02-23T05:15:47;4.40;99.90
2407;DHT22;37709;53.480;9.688;2024-02-23T05:18:14;4.30;99.90
2407;DHT22;37709;53.480;9.688;2024-02-23T05:20:42;4.50;99.90
2407;DHT22;37709;53.480;9.688;2024-02-23T05:23:11;4.40;99.90
2407;DHT22;37709;53.480;9.688;2024-02-23T05:25:38;4.40;99.90
2407;DHT22;37709;53.480;9.688;2024-02-23T05:28:06;4.40;99.90
2407;DHT22;37709;53.480;9.688;2024-02-23T05:30:33;4.70;99.90
2407;DHT22;37709;53.480;9.688;2024-02-23T05:33:01;4.80;99.90
2407;DHT22;37709;53.480;9.688;2024-02-23T05:35:31;4.80;99.90
2407;DHT22;37709;53.480;9.688;2024-02-23T05:37:59;4.90;99.90
2407;DHT22;37709;53.480;9.688;2024-02-23T05:40:26;4.90;99.90
2407;DHT22;37709;53.480;9.688;2024-02-23T05:42:55;4.90;99.90
2407;DHT22;37709;53.480;9.688;2024-02-23T05:45:22;4.80;99.90
2407;DHT22;37709;53.480;9.688;2024-02-23T05:47:50;4.60;99.90
2407;DHT22;37709;53.480;9.688;2024-02-23T05:50:18;4.50;99.90
2407;DHT22;37709;53.480;9.688;2024-02-23T05:52:46;4.60;99.90
2407;DHT22;37709;53.480;9.688;2024-02-23T05:55:13;4.50;99.90
2407;DHT22;37709;53.480;9.688;2024-02-23T05:57:41;4.50;99.90
2407;DHT22;37709;53.480;9.688;2024-02-23T06:00:08;4.50;99.90
2407;DHT22;37709;53.480;9.688;2024-02-23T06:02:40;4.30;99.90
2407;DHT22;37709;53.480;9.688;2024-02-23T06:05:07;4.40;99.90
2407;DHT22;37709;53.480;9.688;2024-02-23T06:07:35;4.40;99.90
2407;DHT22;37709;53.480;9.688;2024-02-23T06:10:04;4.40;99.90
2407;DHT22;37709;53.480;9.688;2024-02-23T06:12:32;4.40;99.90
2407;DHT22;37709;53.480;9.688;2024-02-23T06:15:00;4.30;99.90
2407;DHT22;37709;53.480;9.688;2024-02-23T06:17:27;4.30;99.90
2407;DHT22;37709;53.480;9.688;2024-02-23T06:19:55;4.30;99.90
2407;DHT22;37709;53.480;9.688;2024-02-23T06:22:25;4.20;99.90
2407;DHT22;37709;53.480;9.688;2024-02-23T06:25:19;4.10;99.90
2407;DHT22;37709;53.480;9.688;2024-02-23T06:27:46;4.10;99.90
2407;DHT22;37709;53.480;9.688;2024-02-23T06:30:13;4.20;99.90
2407;DHT22;37709;53.480;9.688;2024-02-23T06:32:42;4.20;99.90
2407;DHT22;37709;53.480;9.688;2024-02-23T06:35:14;4.30;99.90
2407;DHT22;37709;53.480;9.688;2024-02-23T06:37:41;4.10;99.90
2407;DHT22;37709;53.480;9.688;2024-02-23T06:40:09;4.10;99.90
2407;DHT22;37709;53.480;9.688;2024-02-23T06:42:36;4.30;99.90
2407;DHT22;37709;53.480;9.688;2024-02-23T06:45:04;4.20;99.90
2407;DHT22;37709;53.480;9.688;2024-02-23T06:47:32;4.20;99.90
2407;DHT22;37709;53.480;9.688;2024-02-23T06:50:00;4.20;99.90
2407;DHT22;37709;53.480;9.688;2024-02-23T06:52:28;4.20;99.90
2407;DHT22;37709;53.480;9.688;2024-02-23T06:54:56;4.20;99.90
2407;DHT22;37709;53.480;9.688;2024-02-23T06:57:27;4.40;99.90
2407;DHT22;37709;53.480;9.688;2024-02-23T06:59:54;4.60;99.90
2407;DHT22;37709;53.480;9.688;2024-02-23T07:02:21;5.40;99.90
2407;DHT22;37709;53.480;9.688;2024-02-23T07:04:49;5.80;99.90
2407;DHT22;37709;53.480;9.688;2024-02-23T07:07:16;5.70;99.90
2407;DHT22;37709;53.480;9.688;2024-02-23T07:09:44;5.20;99.90
2407;DHT22;37709;53.480;9.688;2024-02-23T07:12:13;4.90;99.90
2407;DHT22;37709;53.480;9.688;2024-02-23T07:14:41;4.70;99.90
2407;DHT22;37709;53.480;9.688;2024-02-23T07:17:09;4.60;99.90
2407;DHT22;37709;53.480;9.688;2024-02-23T07:19:37;4.50;99.90
2407;DHT22;37709;53.480;9.688;2024-02-23T07:22:05;4.60;99.90
2407;DHT22;37709;53.480;9.688;2024-02-23T07:24:32;4.50;99.90
2407;DHT22;37709;53.480;9.688;2024-02-23T07:27:00;4.50;99.90
2407;DHT22;37709;53.480;9.688;2024-02-23T07:29:27;4.40;99.90
2407;DHT22;37709;53.480;9.688;2024-02-23T07:31:54;4.30;99.90
2407;DHT22;37709;53.480;9.688;2024-02-23T07:34:22;4.20;99.90
2407;DHT22;37709;53.480;9.688;2024-02-23T07:36:53;4.00;99.90
2407;DHT22;37709;53.480;9.688;2024-02-23T07:39:22;4.00;99.90
2407;DHT22;37709;53.480;9.688;2024-02-23T07:41:49;4.00;99.90
2407;DHT22;37709;53.480;9.688;2024-02-23T07:44:16;4.10;99.90
2407;DHT22;37709;53.480;9.688;2024-02-23T07:46:44;4.20;99.90
2407;DHT22;37709;53.480;9.688;2024-02-23T07:49:12;6.30;99.90
2407;DHT22;37709;53.480;9.688;2024-02-23T07:51:39;7.80;99.90
2407;DHT22;37709;53.480;9.688;2024-02-23T07:54:07;8.60;99.90
2407;DHT22;37709;53.480;9.688;2024-02-23T07:56:35;9.30;99.90
2407;DHT22;37709;53.480;9.688;2024-02-23T07:59:02;9.30;99.90
2407;DHT22;37709;53.480;9.688;2024-02-23T08:01:32;9.90;99.90
2407;DHT22;37709;53.480;9.688;2024-02-23T08:04:00;10.10;99.90
2407;DHT22;37709;53.480;9.688;2024-02-23T08:06:27;10.60;99.90
2407;DHT22;37709;53.480;9.688;2024-02-23T08:08:55;10.60;99.90
2407;DHT22;37709;53.480;9.688;2024-02-23T08:11:22;11.10;99.90
2407;DHT22;37709;53.480;9.688;2024-02-23T08:13:49;11.60;99.90
2407;DHT22;37709;53.480;9.688;2024-02-23T08:16:17;11.90;99.90
2407;DHT22;37709;53.480;9.688;2024-02-23T08:18:44;12.30;99.90
2407;DHT22;37709;53.480;9.688;2024-02-23T08:21:11;12.00;99.90
2407;DHT22;37709;53.480;9.688;2024-02-23T08:23:39;11.90;99.90
2407;DHT22;37709;53.480;9.688;2024-02-23T08:26:07;10.80;99.90
2407;DHT22;37709;53.480;9.688;2024-02-23T08:28:34;9.70;99.90
2407;DHT22;37709;53.480;9.688;2024-02-23T08:31:01;10.80;99.90
2407;DHT22;37709;53.480;9.688;2024-02-23T08:33:28;12.40;99.90
2407;DHT22;37709;53.480;9.688;2024-02-23T08:35:56;11.40;99.90
2407;DHT22;37709;53.480;9.688;2024-02-23T08:38:23;11.40;99.90
2407;DHT22;37709;53.480;9.688;2024-02-23T08:40:51;12.50;99.90
2407;DHT22;37709;53.480;9.688;2024-02-23T08:43:19;11.20;99.90
2407;DHT22;37709;53.480;9.688;2024-02-23T08:45:48;11.10;99.90
2407;DHT22;37709;53.480;9.688;2024-02-23T08:48:16;11.70;99.90
2407;DHT22;37709;53.480;9.688;2024-02-23T08:50:43;11.00;99.90
2407;DHT22;37709;53.480;9.688;2024-02-23T08:53:12;11.30;99.90
2407;DHT22;37709;53.480;9.688;2024-02-23T08:55:39;9.40;99.90
2407;DHT22;37709;53.480;9.688;2024-02-23T08:58:06;9.90;99.90
2407;DHT22;37709;53.480;9.688;2024-02-23T09:00:34;9.80;99.90
2407;DHT22;37709;53.480;9.688;2024-02-23T09:03:05;10.60;99.90
2407;DHT22;37709;53.480;9.688;2024-02-23T09:05:33;9.70;99.90
2407;DHT22;37709;53.480;9.688;2024-02-23T09:08:00;10.10;99.90
2407;DHT22;37709;53.480;9.688;2024-02-23T09:10:28;10.00;99.90
2407;DHT22;37709;53.480;9.688;2024-02-23T09:12:56;9.90;99.90
2407;DHT22;37709;53.480;9.688;2024-02-23T09:15:23;9.10;99.90
2407;DHT22;37709;53.480;9.688;2024-02-23T09:17:52;9.10;99.90
2407;DHT22;37709;53.480;9.688;2024-02-23T09:20:19;9.10;99.90
2407;DHT22;37709;53.480;9.688;2024-02-23T09:22:48;9.30;99.90
2407;DHT22;37709;53.480;9.688;2024-02-23T09:25:16;8.90;99.90
2407;DHT22;37709;53.480;9.688;2024-02-23T09:27:43;9.20;99.90
2407;DHT22;37709;53.480;9.688;2024-02-23T09:30:12;9.20;99.90
2407;DHT22;37709;53.480;9.688;2024-02-23T09:32:41;9.30;99.90
2407;DHT22;37709;53.480;9.688;2024-02-23T09:35:10;9.40;99.90
2407;DHT22;37709;53.480;9.688;2024-02-23T09:37:37;9.30;99.90
2407;DHT22;37709;53.480;9.688;2024-02-23T09:40:06;9.30;99.90
2407;DHT22;37709;53.480;9.688;2024-02-23T09:42:34;8.80;99.90
2407;DHT22;37709;53.480;9.688;2024-02-23T09:45:27;8.90;99.90
2407;DHT22;37709;53.480;9.688;2024-02-23T09:47:57;9.00;99.90
2407;DHT22;37709;53.480;9.688;2024-02-23T09:50:25;9.20;99.90
2407;DHT22;37709;53.480;9.688;2024-02-23T09:52:56;9.90;99.90
2407;DHT22;37709;53.480;9.688;2024-02-23T09:55:26;9.60;99.90
2407;DHT22;37709;53.480;9.688;2024-02-23T09:57:57;10.60;99.90
2407;DHT22;37709;53.480;9.688;2024-02-23T10:00:27;10.30;99.90
2407;DHT22;37709;53.480;9.688;2024-02-23T10:02:55;10.10;99.90
2407;DHT22;37709;53.480;9.688;2024-02-23T10:05:23;11.00;99.90
2407;DHT22;37709;53.480;9.688;2024-02-23T10:08:02;12.40;99.90
2407;DHT22;37709;53.480;9.688;2024-02-23T10:10:35;11.70;99.90
2407;DHT22;37709;53.480;9.688;2024-02-23T10:13:05;11.80;99.90
2407;DHT22;37709;53.480;9.688;2024-02-23T10:15:34;10.90;99.90
2407;DHT22;37709;53.480;9.688;2024-02-23T10:18:02;10.50;99.90
2407;DHT22;37709;53.480;9.688;2024-02-23T10:20:34;10.30;99.90
2407;DHT22;37709;53.480;9.688;2024-02-23T10:23:03;10.70;99.90
2407;DHT22;37709;53.480;9.688;2024-02-23T10:25:33;10.40;99.90
2407;DHT22;37709;53.480;9.688;2024-02-23T10:28:02;10.00;99.90
2407;DHT22;37709;53.480;9.688;2024-02-23T10:30:31;10.20;99.90
2407;DHT22;37709;53.480;9.688;2024-02-23T10:32:58;10.00;99.90
2407;DHT22;37709;53.480;9.688;2024-02-23T10:35:26;9.60;99.90
2407;DHT22;37709;53.480;9.688;2024-02-23T10:37:55;9.20;99.90
2407;DHT22;37709;53.480;9.688;2024-02-23T10:40:22;8.90;99.90
2407;DHT22;37709;53.480;9.688;2024-02-23T10:42:51;8.80;99.90
2407;DHT22;37709;53.480;9.688;2024-02-23T10:45:22;9.00;99.90
2407;DHT22;37709;53.480;9.688;2024-02-23T10:47:50;9.10;99.90
2407;DHT22;37709;53.480;9.688;2024-02-23T10:50:19;9.00;99.90
2407;DHT22;37709;53.480;9.688;2024-02-23T10:52:47;9.00;99.90
2407;DHT22;37709;53.480;9.688;2024-02-23T10:55:15;9.30;99.90
2407;DHT22;37709;53.480;9.688;2024-02-23T10:57:42;9.30;99.90
2407;DHT22;37709;53.480;9.688;2024-02-23T11:00:10;9.40;99.90
2407;DHT22;37709;53.480;9.688;2024-02-23T11:02:51;9.00;99.90
2407;DHT22;37709;53.480;9.688;2024-02-23T11:05:19;8.70;99.90
2407;DHT22;37709;53.480;9.688;2024-02-23T11:07:47;8.70;99.90
2407;DHT22;37709;53.480;9.688;2024-02-23T11:10:18;8.60;99.90
2407;DHT22;37709;53.480;9.688;2024-02-23T11:12:59;8.70;99.90
2407;DHT22;37709;53.480;9.688;2024-02-23T11:15:29;9.00;99.90
2407;DHT22;37709;53.480;9.688;2024-02-23T11:17:56;9.20;99.90
2407;DHT22;37709;53.480;9.688;2024-02-23T11:20:34;9.20;99.90
2407;DHT22;37709;53.480;9.688;2024-02-23T11:23:01;9.20;99.90
2407;DHT22;37709;53.480;9.688;2024-02-23T11:25:40;9.10;99.90
2407;DHT22;37709;53.480;9.688;2024-02-23T11:28:07;8.80;99.90
2407;DHT22;37709;53.480;9.688;2024-02-23T11:30:34;9.20;99.90
2407;DHT22;37709;53.480;9.688;2024-02-23T11:33:08;9.30;99.90
2407;DHT22;37709;53.480;9.688;2024-02-23T11:35:35;9.70;99.90
2407;DHT22;37709;53.480;9.688;2024-02-23T11:38:13;10.90;99.90
2407;DHT22;37709;53.480;9.688;2024-02-23T11:40:41;12.80;99.90
2407;DHT22;37709;53.480;9.688;2024-02-23T11:43:10;12.90;99.90
2407;DHT22;37709;53.480;9.688;2024-02-23T11:45:37;12.10;99.90
2407;DHT22;37709;53.480;9.688;2024-02-23T11:48:05;12.00;99.90
2407;DHT22;37709;53.480;9.688;2024-02-23T11:50:35;11.70;99.90
2407;DHT22;37709;53.480;9.688;2024-02-23T11:53:03;11.30;99.90
2407;DHT22;37709;53.480;9.688;2024-02-23T11:55:31;11.20;99.90
2407;DHT22;37709;53.480;9.688;2024-02-23T11:57:59;11.20;99.90
2407;DHT22;37709;53.480;9.688;2024-02-23T12:00:34;10.70;99.90
2407;DHT22;37709;53.480;9.688;2024-02-23T12:03:03;10.20;99.90
2407;DHT22;37709;53.480;9.688;2024-02-23T12:05:32;10.20;99.90
2407;DHT22;37709;53.480;9.688;2024-02-23T12:07:59;10.20;99.90
2407;DHT22;37709;53.480;9.688;2024-02-23T12:10:27;10.10;99.90
2407;DHT22;37709;53.480;9.688;2024-02-23T12:12:54;10.20;99.90
2407;DHT22;37709;53.480;9.688;2024-02-23T12:15:23;10.30;99.90
2407;DHT22;37709;53.480;9.688;2024-02-23T12:17:50;10.10;99.90
2407;DHT22;37709;53.480;9.688;2024-02-23T12:20:18;10.70;99.90
2407;DHT22;37709;53.480;9.688;2024-02-23T12:22:47;11.60;99.90
2407;DHT22;37709;53.480;9.688;2024-02-23T12:25:14;12.00;99.90
2407;DHT22;37709;53.480;9.688;2024-02-23T12:27:43;12.10;99.90
2407;DHT22;37709;53.480;9.688;2024-02-23T12:30:14;12.60;99.90
2407;DHT22;37709;53.480;9.688;2024-02-23T12:32:42;12.60;99.90
2407;DHT22;37709;53.480;9.688;2024-02-23T12:35:12;11.90;99.90
2407;DHT22;37709;53.480;9.688;2024-02-23T12:37:43;12.60;99.90
2407;DHT22;37709;53.480;9.688;2024-02-23T12:40:11;12.60;99.90
2407;DHT22;37709;53.480;9.688;2024-02-23T12:42:40;13.40;99.90
2407;DHT22;37709;53.480;9.688;2024-02-23T12:45:08;14.40;99.90
2407;DHT22;37709;53.480;9.688;2024-02-23T12:47:35;15.30;99.90
2407;DHT22;37709;53.480;9.688;2024-02-23T12:50:03;17.90;99.90
2407;DHT22;37709;53.480;9.688;2024-02-23T12:52:31;14.90;99.90
2407;DHT22;37709;53.480;9.688;2024-02-23T12:54:59;14.70;99.90
2407;DHT22;37709;53.480;9.688;2024-02-23T12:57:27;15.60;99.90
2407;DHT22;37709;53.480;9.688;2024-02-23T12:59:54;15.10;99.90
2407;DHT22;37709;53.480;9.688;2024-02-23T13:02:22;13.20;99.90
2407;DHT22;37709;53.480;9.688;2024-02-23T13:04:50;12.50;99.90
2407;DHT22;37709;53.480;9.688;2024-02-23T13:07:17;11.70;99.90
2407;DHT22;37709;53.480;9.688;2024-02-23T13:09:45;10.60;99.90
2407;DHT22;37709;53.480;9.688;2024-02-23T13:12:12;10.40;99.90
2407;DHT22;37709;53.480;9.688;2024-02-23T13:14:40;10.40;99.90
2407;DHT22;37709;53.480;9.688;2024-02-23T13:17:08;10.30;99.90
2407;DHT22;37709;53.480;9.688;2024-02-23T13:19:35;10.00;99.90
2407;DHT22;37709;53.480;9.688;2024-02-23T13:22:06;9.80;99.90
2407;DHT22;37709;53.480;9.688;2024-02-23T13:24:34;9.50;99.90
2407;DHT22;37709;53.480;9.688;2024-02-23T13:27:01;9.20;99.90
2407;DHT22;37709;53.480;9.688;2024-02-23T13:29:29;9.10;99.90
2407;DHT22;37709;53.480;9.688;2024-02-23T13:31:56;9.10;99.90
2407;DHT22;37709;53.480;9.688;2024-02-23T13:34:24;9.20;99.90
2407;DHT22;37709;53.480;9.688;2024-02-23T13:36:51;9.10;99.90
2407;DHT22;37709;53.480;9.688;2024-02-23T13:39:19;9.10;99.90
2407;DHT22;37709;53.480;9.688;2024-02-23T13:41:48;9.30;99.90
2407;DHT22;37709;53.480;9.688;2024-02-23T13:44:15;9.30;99.90
2407;DHT22;37709;53.480;9.688;2024-02-23T13:46:43;9.40;99.90
2407;DHT22;37709;53.480;9.688;2024-02-23T13:49:10;9.30;99.90
2407;DHT22;37709;53.480;9.688;2024-02-23T13:51:39;9.30;99.90
2407;DHT22;37709;53.480;9.688;2024-02-23T13:54:07;9.40;99.90
2407;DHT22;37709;53.480;9.688;2024-02-23T13:56:34;9.50;99.90
2407;DHT22;37709;53.480;9.688;2024-02-23T13:59:03;9.60;99.90
2407;DHT22;37709;53.480;9.688;2024-02-23T14:01:31;11.00;99.90
2407;DHT22;37709;53.480;9.688;2024-02-23T14:03:59;11.90;99.90
2407;DHT22;37709;53.480;9.688;2024-02-23T14:06:26;13.00;99.90
2407;DHT22;37709;53.480;9.688;2024-02-23T14:08:54;12.90;99.90
2407;DHT22;37709;53.480;9.688;2024-02-23T14:11:21;14.40;99.90
2407;DHT22;37709;53.480;9.688;2024-02-23T14:13:48;12.90;99.90
2407;DHT22;37709;53.480;9.688;2024-02-23T14:16:18;11.60;99.90
2407;DHT22;37709;53.480;9.688;2024-02-23T14:18:45;11.40;99.90
2407;DHT22;37709;53.480;9.688;2024-02-23T14:21:13;11.40;99.90
2407;DHT22;37709;53.480;9.688;2024-02-23T14:23:42;11.20;99.90
2407;DHT22;37709;53.480;9.688;2024-02-23T14:26:10;11.40;99.90
2407;DHT22;37709;53.480;9.688;2024-02-23T14:28:38;10.80;99.90
2407;DHT22;37709;53.480;9.688;2024-02-23T14:31:05;10.50;99.90
2407;DHT22;37709;53.480;9.688;2024-02-23T14:33:33;10.70;99.90
2407;DHT22;37709;53.480;9.688;2024-02-23T14:36:00;10.70;99.90
2407;DHT22;37709;53.480;9.688;2024-02-23T14:38:28;10.70;99.90
2407;DHT22;37709;53.480;9.688;2024-02-23T14:40:56;10.80;99.90
2407;DHT22;37709;53.480;9.688;2024-02-23T14:43:24;11.20;99.90
2407;DHT22;37709;53.480;9.688;2024-02-23T14:45:51;11.60;99.90
2407;DHT22;37709;53.480;9.688;2024-02-23T14:48:19;11.40;99.90
2407;DHT22;37709;53.480;9.688;2024-02-23T14:50:48;12.00;99.90
2407;DHT22;37709;53.480;9.688;2024-02-23T14:53:16;11.80;99.90
2407;DHT22;37709;53.480;9.688;2024-02-23T14:55:43;11.60;99.90
2407;DHT22;37709;53.480;9.688;2024-02-23T14:58:10;11.40;99.90
2407;DHT22;37709;53.480;9.688;2024-02-23T15:00:38;11.10;99.90
2407;DHT22;37709;53.480;9.688;2024-02-23T15:03:06;10.70;99.90
2407;DHT22;37709;53.480;9.688;2024-02-23T15:05:33;10.50;99.90
2407;DHT22;37709;53.480;9.688;2024-02-23T15:08:26;10.30;99.90
2407;DHT22;37709;53.480;9.688;2024-02-23T15:10:54;10.20;99.90
2407;DHT22;37709;53.480;9.688;2024-02-23T15:13:22;10.40;99.90
2407;DHT22;37709;53.480;9.688;2024-02-23T15:15:49;10.20;99.90
2407;DHT22;37709;53.480;9.688;2024-02-23T15:18:17;10.20;99.90
2407;DHT22;37709;53.480;9.688;2024-02-23T15:20:45;9.90;99.90
2407;DHT22;37709;53.480;9.688;2024-02-23T15:23:14;9.70;99.90
2407;DHT22;37709;53.480;9.688;2024-02-23T15:25:42;9.40;99.90
2407;DHT22;37709;53.480;9.688;2024-02-23T15:28:13;9.30;99.90
2407;DHT22;37709;53.480;9.688;2024-02-23T15:30:40;9.30;99.90
2407;DHT22;37709;53.480;9.688;2024-02-23T15:33:07;9.30;99.90
2407;DHT22;37709;53.480;9.688;2024-02-23T15:35:36;9.20;99.90
2407;DHT22;37709;53.480;9.688;2024-02-23T15:38:04;9.20;99.90
2407;DHT22;37709;53.480;9.688;2024-02-23T15:40:32;9.20;99.90
2407;DHT22;37709;53.480;9.688;2024-02-23T15:43:00;9.10;99.90
2407;DHT22;37709;53.480;9.688;2024-02-23T15:45:30;9.10;99.90
2407;DHT22;37709;53.480;9.688;2024-02-23T15:47:58;9.00;99.90
2407;DHT22;37709;53.480;9.688;2024-02-23T15:50:25;9.00;99.90
2407;DHT22;37709;53.480;9.688;2024-02-23T15:53:15;8.90;99.90
2407;DHT22;37709;53.480;9.688;2024-02-23T15:55:43;9.00;99.90
2407;DHT22;37709;53.480;9.688;2024-02-23T15:58:10;8.90;99.90
2407;DHT22;37709;53.480;9.688;2024-02-23T16:00:37;8.90;99.90
2407;DHT22;37709;53.480;9.688;2024-02-23T16:03:30;8.90;99.90
2407;DHT22;37709;53.480;9.688;2024-02-23T16:05:57;8.80;99.90